Hernani, Spain
Current Conditions -  °F | °C
As of 6:30 AM on Sunday 21 Dec 2014 (Local Time) from LESO Reporting Station
Broken Clouds Broken Clouds  
Wind Chill: 48°   Ceiling: 4200
Heat Index: 48°   Visibility: 6mi
Dew Point: 45°   Wind: 3mph
Humidity: 87%   Direction: 90°E
Pressure: 30.59"   Gusts: NA
Location:  43.27°N, 1.98°W
Report Text: LESO 210530Z 09003KT 020V150 9999 SCT009 BKN042 09/07 Q1036
Loading
Personal Weather Stations






























Interactive Weather Map New forecast layout! Learn more

10-Day Weather Forecast

Advertisements
Track Severe Weather on mobile